Archival Weather

Luke Afb

Glendale, Arizona (KLUF)

Report from: Friday, April 19, 2024 6:55 PM MST
Current time: Monday, June 24, 2024 3:43 AM MST

Current weather – Weather history – Daily summaries
Weather forecast

Temperature31.0°C (87.8°F)
Heat index29.0°C (84.2°F)
Dew point-8.9°C (16.0°F)
Winds 5 kts (2.6 m/s, 5.8 mph) West (260°)
Visibility10 mi. (16.1 km)
Clouds Sky clear
Altimeter29.72 in.Hg (1006 mB)
Relative humidity7 %
Density altitude2,156 ft. (657 m)
Sea-level pressure100.5 kPa (1005 mB, 29.69 in.Hg)
Remarks Fully automated report
System requires maintenance
Automated weather observing station with precipitation discriminator
Flight conditions Visual Meteorological Conditions
Raw dataKLUF 200155Z AUTO 26005KT 10SM CLR 31/M09 A2972 RMK AO2 SLP053 T03101089 $
An error has occurred. This application may no longer respond until reloaded. Reload 🗙